createdAt,value
2019-02-09T00:00:59.154Z,0.00
2019-02-09T00:03:06.519Z,0.10
2019-02-09T00:05:12.684Z,0.05
2019-02-09T00:07:18.945Z,0.03
2019-02-09T00:09:25.341Z,0.04
2019-02-09T00:11:31.632Z,-0.01
2019-02-09T00:13:37.947Z,0.00
2019-02-09T00:15:44.268Z,-0.02
2019-02-09T00:17:50.420Z,-0.05
2019-02-09T00:19:56.622Z,-0.10
2019-02-09T00:22:02.849Z,-0.05
2019-02-09T00:24:09.116Z,-0.06
2019-02-09T00:26:15.432Z,-0.03
2019-02-09T00:28:21.672Z,-0.02
2019-02-09T00:30:27.905Z,-0.01
2019-02-09T00:32:34.093Z,-0.01
2019-02-09T00:34:41.544Z,-0.05
2019-02-09T00:36:47.775Z,-0.05
2019-02-09T00:38:53.962Z,-0.04
2019-02-09T00:41:00.199Z,0.00
2019-02-09T00:43:06.478Z,-0.05
2019-02-09T00:45:18.585Z,-0.06
2019-02-09T00:47:24.747Z,-0.05
2019-02-09T00:49:31.084Z,-0.03
2019-02-09T00:51:37.420Z,-0.01
2019-02-09T00:53:43.582Z,-0.07
2019-02-09T00:55:49.750Z,0.01
2019-02-09T00:57:56.073Z,-0.04
2019-02-09T01:00:02.229Z,-0.08
2019-02-09T01:02:09.341Z,-0.09
2019-02-09T01:04:15.597Z,-0.09
2019-02-09T01:06:21.828Z,-0.07
2019-02-09T01:08:28.124Z,-0.10
2019-02-09T01:10:34.313Z,-0.17
2019-02-09T01:12:40.579Z,-0.13
2019-02-09T01:14:46.920Z,-0.17
2019-02-09T01:16:53.182Z,-0.22
2019-02-09T01:18:59.431Z,-0.27
2019-02-09T01:21:05.594Z,-0.17
2019-02-09T01:23:11.898Z,-0.18
2019-02-09T01:25:18.191Z,-0.12
2019-02-09T01:27:24.426Z,-0.09
2019-02-09T01:29:30.614Z,-0.13
2019-02-09T01:31:36.921Z,-0.09
2019-02-09T01:33:43.089Z,-0.19
2019-02-09T01:35:49.463Z,-0.09
2019-02-09T01:37:55.701Z,-0.16
2019-02-09T01:40:01.867Z,-0.11
2019-02-09T01:42:08.306Z,-0.08
2019-02-09T01:44:14.564Z,-0.08
2019-02-09T01:46:20.738Z,-0.03
2019-02-09T01:48:27.052Z,-0.07
2019-02-09T01:50:33.952Z,-0.12
2019-02-09T01:52:40.105Z,-0.10
2019-02-09T01:54:46.420Z,-0.06
2019-02-09T01:56:52.694Z,0.00
2019-02-09T01:58:58.868Z,-0.05
2019-02-09T02:01:05.057Z,-0.08
2019-02-09T02:03:11.373Z,-0.05
2019-02-09T02:05:22.838Z,0.00
2019-02-09T02:07:29.011Z,0.08
2019-02-09T02:09:35.180Z,-0.04
2019-02-09T02:11:41.471Z,-0.12
2019-02-09T02:13:47.731Z,-0.10
2019-02-09T02:15:54.029Z,-0.08
2019-02-09T02:18:00.327Z,-0.14
2019-02-09T02:20:14.227Z,-0.05
2019-02-09T02:22:20.498Z,-0.05
2019-02-09T02:24:26.672Z,-0.11
2019-02-09T02:26:32.859Z,-0.12
2019-02-09T02:28:39.095Z,-0.21
2019-02-09T02:30:45.183Z,-0.20
2019-02-09T02:32:51.749Z,-0.11
2019-02-09T02:34:58.544Z,-0.17
2019-02-09T02:37:04.813Z,-0.27
2019-02-09T02:39:11.246Z,-0.13
2019-02-09T02:41:17.633Z,-0.17
2019-02-09T02:43:23.788Z,-0.16
2019-02-09T02:45:30.108Z,-0.20
2019-02-09T02:47:37.560Z,-0.17
2019-02-09T02:49:43.805Z,-0.11
2019-02-09T02:51:50.163Z,-0.09
2019-02-09T02:53:57.333Z,-0.15
2019-02-09T02:56:03.583Z,-0.17
2019-02-09T02:58:10.164Z,-0.20
2019-02-09T03:00:31.684Z,-0.19
2019-02-09T03:02:31.562Z,-0.17
2019-02-09T03:04:37.809Z,-0.14
2019-02-09T03:06:44.228Z,-0.17
2019-02-09T03:08:50.514Z,-0.14
2019-02-09T03:10:56.789Z,-0.06
2019-02-09T03:13:03.020Z,-0.03
2019-02-09T03:15:16.096Z,-0.09
2019-02-09T03:17:22.368Z,-0.08
2019-02-09T03:19:28.588Z,-0.05
2019-02-09T03:21:36.806Z,0.04
2019-02-09T03:23:45.951Z,0.04
2019-02-09T03:25:52.183Z,-0.01
2019-02-09T03:27:58.489Z,-0.03
2019-02-09T03:30:09.122Z,0.05
2019-02-09T03:32:15.545Z,0.17
2019-02-09T03:34:21.755Z,0.32
2019-02-09T03:36:28.100Z,0.30
2019-02-09T03:38:34.249Z,0.31
2019-02-09T03:40:40.404Z,0.26
2019-02-09T03:42:46.676Z,0.25
2019-02-09T03:44:53.025Z,0.20
2019-02-09T03:46:59.176Z,0.22
2019-02-09T03:49:05.426Z,0.19
2019-02-09T03:51:11.644Z,0.14
2019-02-09T03:53:17.935Z,0.14
2019-02-09T03:55:24.190Z,0.21
2019-02-09T03:57:30.344Z,0.18
2019-02-09T03:59:37.639Z,0.19
2019-02-09T04:01:43.989Z,0.18
2019-02-09T04:03:50.141Z,0.20
2019-02-09T04:05:56.298Z,0.19
2019-02-09T04:08:02.485Z,0.21
2019-02-09T04:10:13.347Z,0.17
2019-02-09T04:12:19.580Z,0.17
2019-02-09T04:14:27.356Z,0.19
2019-02-09T04:16:33.505Z,0.22
2019-02-09T04:18:39.664Z,0.26
2019-02-09T04:20:45.922Z,0.25
2019-02-09T04:22:52.085Z,0.29
2019-02-09T04:24:58.240Z,0.25
2019-02-09T04:27:04.762Z,0.24
2019-02-09T04:29:10.985Z,0.22
2019-02-09T04:31:17.143Z,0.25
2019-02-09T04:33:23.327Z,0.23
2019-02-09T04:35:29.647Z,0.23
2019-02-09T04:37:35.805Z,0.21
2019-02-09T04:39:42.140Z,0.17
2019-02-09T04:41:48.439Z,0.20
2019-02-09T04:43:54.658Z,0.29
2019-02-09T04:46:00.840Z,0.26
2019-02-09T04:48:07.055Z,0.27
2019-02-09T04:50:14.483Z,0.28
2019-02-09T04:52:20.873Z,0.28
2019-02-09T04:54:27.105Z,0.25
2019-02-09T04:56:33.271Z,0.32
2019-02-09T04:58:39.456Z,0.34
2019-02-09T05:00:45.672Z,0.38
2019-02-09T05:02:51.904Z,0.33
2019-02-09T05:04:58.173Z,0.39
2019-02-09T05:07:04.392Z,0.43
2019-02-09T05:09:10.610Z,0.39
2019-02-09T05:11:16.802Z,0.37
2019-02-09T05:13:23.027Z,0.38
2019-02-09T05:15:29.176Z,0.32
2019-02-09T05:17:35.595Z,0.31
2019-02-09T05:19:41.807Z,0.36
2019-02-09T05:21:48.050Z,0.32
2019-02-09T05:23:54.232Z,0.33
2019-02-09T05:26:00.550Z,0.33
2019-02-09T05:28:06.700Z,0.35
2019-02-09T05:30:23.134Z,0.38
2019-02-09T05:32:29.298Z,0.38
2019-02-09T05:34:35.438Z,0.36
2019-02-09T05:36:41.619Z,0.35
2019-02-09T05:38:47.779Z,0.32
2019-02-09T05:40:54.008Z,0.30
2019-02-09T05:43:00.199Z,0.33
2019-02-09T05:45:19.054Z,0.37
2019-02-09T05:47:25.348Z,0.34
2019-02-09T05:49:31.526Z,0.40
2019-02-09T05:51:37.686Z,0.38
2019-02-09T05:53:43.989Z,0.37
2019-02-09T05:55:50.249Z,0.34
2019-02-09T05:57:56.543Z,0.29
2019-02-09T06:00:02.937Z,0.27
2019-02-09T06:02:09.173Z,0.27
2019-02-09T06:04:15.550Z,0.22
2019-02-09T06:06:21.824Z,0.22
2019-02-09T06:08:29.024Z,0.23
2019-02-09T06:10:35.176Z,0.32
2019-02-09T06:12:41.343Z,0.27
2019-02-09T06:14:47.514Z,0.24
2019-02-09T06:16:53.842Z,0.32
2019-02-09T06:19:00.065Z,0.31
2019-02-09T06:21:06.236Z,0.32
2019-02-09T06:23:12.460Z,0.46
2019-02-09T06:25:18.690Z,0.55
2019-02-09T06:27:24.874Z,0.51
2019-02-09T06:29:31.090Z,0.47
2019-02-09T06:31:40.810Z,0.50
2019-02-09T06:33:45.196Z,0.50
2019-02-09T06:35:51.361Z,0.49
2019-02-09T06:37:57.460Z,0.50
2019-02-09T06:40:04.749Z,0.51
2019-02-09T06:42:11.236Z,0.55
2019-02-09T06:44:17.488Z,0.57
2019-02-09T06:46:23.742Z,0.55
2019-02-09T06:48:30.147Z,0.71
2019-02-09T06:50:36.437Z,0.84
2019-02-09T06:52:42.736Z,0.80
2019-02-09T06:54:48.891Z,0.96
2019-02-09T06:56:55.114Z,1.04
2019-02-09T06:59:01.445Z,1.18
2019-02-09T07:01:07.602Z,1.27
2019-02-09T07:03:13.945Z,1.25
2019-02-09T07:05:21.266Z,1.43
2019-02-09T07:07:27.409Z,1.48
2019-02-09T07:09:33.736Z,1.85
2019-02-09T07:11:40.054Z,2.18
2019-02-09T07:13:46.344Z,2.29
2019-02-09T07:15:52.585Z,2.37
2019-02-09T07:17:58.770Z,2.62
2019-02-09T07:20:09.030Z,2.77
2019-02-09T07:22:15.183Z,2.67
2019-02-09T07:24:21.361Z,2.69
2019-02-09T07:26:27.511Z,2.39
2019-02-09T07:28:33.867Z,2.47
2019-02-09T07:30:40.255Z,2.47
2019-02-09T07:32:46.483Z,2.71
2019-02-09T07:34:52.715Z,2.47
2019-02-09T07:36:58.987Z,2.21
2019-02-09T07:39:08.510Z,2.32
2019-02-09T07:41:14.667Z,2.44
2019-02-09T07:43:21.174Z,2.38
2019-02-09T07:45:35.300Z,2.49
2019-02-09T07:47:41.540Z,2.67
2019-02-09T07:49:47.725Z,3.03
2019-02-09T07:51:53.808Z,2.90
2019-02-09T07:53:59.979Z,3.04
2019-02-09T07:56:06.150Z,3.34
2019-02-09T07:58:12.444Z,2.95
2019-02-09T08:00:33.202Z,3.09
2019-02-09T08:02:39.470Z,3.25
2019-02-09T08:04:45.891Z,3.87
2019-02-09T08:06:52.124Z,3.31
2019-02-09T08:08:59.362Z,2.97
2019-02-09T08:11:09.295Z,3.50
2019-02-09T08:13:13.517Z,4.06
2019-02-09T08:15:23.851Z,4.52
2019-02-09T08:17:30.143Z,3.73
2019-02-09T08:19:36.302Z,3.35
2019-02-09T08:21:42.639Z,3.17
2019-02-09T08:23:48.729Z,3.06
2019-02-09T08:25:55.048Z,3.02
2019-02-09T08:28:01.664Z,2.89
2019-02-09T08:30:12.722Z,3.06
2019-02-09T08:32:18.975Z,3.04
2019-02-09T08:34:25.166Z,3.19
2019-02-09T08:36:31.384Z,3.26
2019-02-09T08:38:37.633Z,3.17
2019-02-09T08:40:43.886Z,3.17
2019-02-09T08:42:50.043Z,3.10
2019-02-09T08:44:56.206Z,3.02
2019-02-09T08:47:02.396Z,3.20
2019-02-09T08:49:08.615Z,3.47
2019-02-09T08:51:14.968Z,3.08
2019-02-09T08:53:21.249Z,3.54
2019-02-09T08:55:27.476Z,3.64
2019-02-09T08:57:33.703Z,3.58
2019-02-09T08:59:40.099Z,3.39
2019-02-09T09:01:46.322Z,3.59
2019-02-09T09:03:52.597Z,3.35
2019-02-09T09:05:59.029Z,3.35
2019-02-09T09:08:05.787Z,3.43
2019-02-09T09:10:19.454Z,3.46
2019-02-09T09:12:25.633Z,3.46
2019-02-09T09:14:31.935Z,3.41
2019-02-09T09:16:38.150Z,3.34
2019-02-09T09:18:44.336Z,3.26
2019-02-09T09:20:57.604Z,3.43
2019-02-09T09:23:03.760Z,3.38
2019-02-09T09:25:10.003Z,3.56
2019-02-09T09:27:17.230Z,3.58
2019-02-09T09:29:23.473Z,3.59
2019-02-09T09:31:29.800Z,3.48
2019-02-09T09:33:36.018Z,3.65
2019-02-09T09:35:42.266Z,3.49
2019-02-09T09:37:48.511Z,3.66
2019-02-09T09:39:54.867Z,3.71
2019-02-09T09:42:01.158Z,3.67
2019-02-09T09:44:08.428Z,3.67
2019-02-09T09:46:14.739Z,3.74
2019-02-09T09:48:21.999Z,3.97
2019-02-09T09:50:29.595Z,3.84
2019-02-09T09:52:35.865Z,3.94
2019-02-09T09:54:42.087Z,3.97
2019-02-09T09:56:48.399Z,4.11
2019-02-09T09:58:54.554Z,3.98
2019-02-09T10:01:00.771Z,4.20
2019-02-09T10:03:07.147Z,4.39
2019-02-09T10:05:13.427Z,4.23
2019-02-09T10:07:19.589Z,4.26
2019-02-09T10:09:25.773Z,4.28
2019-02-09T10:11:32.055Z,4.31
2019-02-09T10:13:38.340Z,4.14
2019-02-09T10:15:45.361Z,4.30
2019-02-09T10:17:51.664Z,4.23
2019-02-09T10:19:57.804Z,4.33
2019-02-09T10:22:04.053Z,4.30
2019-02-09T10:24:10.223Z,4.22
2019-02-09T10:26:16.443Z,4.31
2019-02-09T10:28:22.703Z,4.34
2019-02-09T10:30:34.765Z,4.36
2019-02-09T10:32:44.478Z,4.34
2019-02-09T10:34:48.896Z,4.36
2019-02-09T10:36:55.050Z,4.45
2019-02-09T10:39:03.907Z,4.40
2019-02-09T10:41:12.009Z,4.36
2019-02-09T10:43:18.348Z,4.45
2019-02-09T10:45:27.581Z,4.33
2019-02-09T10:47:33.918Z,4.44
2019-02-09T10:49:40.090Z,4.43
2019-02-09T10:51:46.371Z,4.42
2019-02-09T10:53:52.610Z,4.46
2019-02-09T10:55:58.833Z,4.68
2019-02-09T10:58:05.801Z,4.55
2019-02-09T11:00:35.134Z,4.57
2019-02-09T11:02:41.296Z,4.47
2019-02-09T11:04:47.686Z,4.51
2019-02-09T11:06:53.985Z,4.60
2019-02-09T11:09:00.207Z,4.59
2019-02-09T11:11:06.563Z,4.62
2019-02-09T11:13:12.812Z,4.62
2019-02-09T11:15:23.841Z,4.58
2019-02-09T11:17:30.038Z,4.66
2019-02-09T11:19:36.372Z,4.63
2019-02-09T11:21:42.515Z,4.65
2019-02-09T11:23:48.816Z,4.63
2019-02-09T11:25:55.137Z,4.53
2019-02-09T11:28:01.301Z,4.68
2019-02-09T11:30:14.994Z,4.66
2019-02-09T11:32:21.248Z,4.71
2019-02-09T11:34:27.413Z,4.65
2019-02-09T11:36:33.625Z,4.74
2019-02-09T11:38:40.143Z,4.71
2019-02-09T11:40:46.302Z,4.68
2019-02-09T11:42:52.522Z,4.74
2019-02-09T11:44:58.843Z,4.87
2019-02-09T11:47:05.089Z,4.75
2019-02-09T11:49:11.246Z,4.84
2019-02-09T11:51:17.646Z,4.91
2019-02-09T11:53:23.905Z,4.92
2019-02-09T11:55:30.217Z,5.08
2019-02-09T11:57:36.459Z,5.12
2019-02-09T11:59:43.364Z,5.13
2019-02-09T12:01:49.933Z,5.15
2019-02-09T12:03:56.110Z,5.18
2019-02-09T12:06:02.277Z,5.16
2019-02-09T12:08:08.514Z,5.11
2019-02-09T12:10:25.857Z,5.12
2019-02-09T12:12:32.574Z,5.21
2019-02-09T12:14:38.976Z,5.25
2019-02-09T12:16:45.228Z,5.31
2019-02-09T12:18:51.565Z,5.27
2019-02-09T12:20:57.793Z,5.21
2019-02-09T12:23:04.659Z,5.27
2019-02-09T12:25:16.126Z,5.32
2019-02-09T12:27:22.306Z,5.46
2019-02-09T12:29:28.628Z,5.52
2019-02-09T12:31:36.406Z,5.51
2019-02-09T12:33:42.561Z,5.70
2019-02-09T12:35:48.832Z,5.81
2019-02-09T12:37:54.986Z,5.74
2019-02-09T12:40:01.222Z,5.74
2019-02-09T12:42:07.536Z,5.81
2019-02-09T12:44:13.706Z,5.86
2019-02-09T12:46:19.921Z,6.08
2019-02-09T12:48:26.169Z,6.17
2019-02-09T12:50:32.516Z,6.15
2019-02-09T12:52:38.739Z,6.03
2019-02-09T12:54:44.917Z,6.03
2019-02-09T12:56:51.210Z,5.95
2019-02-09T12:58:57.530Z,5.89
2019-02-09T13:01:03.789Z,5.94
2019-02-09T13:03:17.308Z,5.96
2019-02-09T13:05:23.460Z,5.87
2019-02-09T13:07:29.837Z,5.88
2019-02-09T13:09:35.975Z,5.94
2019-02-09T13:11:42.121Z,5.93
2019-02-09T13:13:48.346Z,5.87
2019-02-09T13:15:54.837Z,5.86
2019-02-09T13:18:01.334Z,5.85
2019-02-09T13:20:12.512Z,5.94
2019-02-09T13:22:18.725Z,5.93
2019-02-09T13:24:25.176Z,5.96
2019-02-09T13:26:31.393Z,5.94
2019-02-09T13:28:37.548Z,5.94
2019-02-09T13:30:44.008Z,6.00
2019-02-09T13:32:50.187Z,6.05
2019-02-09T13:34:56.474Z,6.02
2019-02-09T13:37:02.696Z,6.02
2019-02-09T13:39:09.478Z,6.12
2019-02-09T13:41:15.781Z,5.96
2019-02-09T13:43:22.588Z,6.02
2019-02-09T13:45:41.648Z,6.06
2019-02-09T13:47:47.087Z,6.03
2019-02-09T13:49:53.179Z,6.00
2019-02-09T13:51:59.487Z,5.97
2019-02-09T13:54:05.977Z,5.90
2019-02-09T13:56:12.279Z,5.99
2019-02-09T13:58:18.596Z,6.00
2019-02-09T14:00:32.844Z,5.89
2019-02-09T14:02:40.697Z,5.96
2019-02-09T14:04:46.953Z,5.98
2019-02-09T14:06:53.099Z,5.92
2019-02-09T14:08:59.432Z,5.86
2019-02-09T14:11:05.756Z,5.86
2019-02-09T14:13:14.626Z,5.87
2019-02-09T14:15:32.745Z,5.84
2019-02-09T14:17:38.284Z,5.77
2019-02-09T14:19:44.438Z,5.69
2019-02-09T14:21:52.095Z,5.62
2019-02-09T14:23:58.307Z,5.61
2019-02-09T14:26:04.664Z,5.57
2019-02-09T14:28:10.878Z,5.39
2019-02-09T14:30:32.754Z,5.21
2019-02-09T14:32:38.957Z,5.09
2019-02-09T14:34:45.392Z,4.97
2019-02-09T14:36:51.647Z,4.86
2019-02-09T14:38:57.858Z,4.78
2019-02-09T14:41:04.154Z,4.70
2019-02-09T14:43:11.048Z,4.62
2019-02-09T14:45:20.882Z,4.63
2019-02-09T14:47:27.074Z,4.59
2019-02-09T14:49:33.458Z,4.57
2019-02-09T14:51:41.022Z,4.47
2019-02-09T14:53:47.461Z,4.42
2019-02-09T14:55:53.840Z,4.38
2019-02-09T14:58:01.329Z,4.39
2019-02-09T15:00:23.873Z,4.47
2019-02-09T15:02:30.326Z,4.42
2019-02-09T15:04:36.625Z,4.48
2019-02-09T15:06:42.841Z,4.48
2019-02-09T15:08:49.305Z,4.45
2019-02-09T15:10:55.722Z,4.43
2019-02-09T15:13:01.931Z,4.46
2019-02-09T15:15:18.673Z,4.47
2019-02-09T15:17:24.961Z,4.48
2019-02-09T15:19:31.173Z,4.53
2019-02-09T15:21:37.413Z,4.61
2019-02-09T15:23:43.857Z,4.56
2019-02-09T15:25:50.148Z,4.61
2019-02-09T15:27:58.106Z,4.64
2019-02-09T15:30:07.252Z,4.70
2019-02-09T15:32:12.816Z,4.74
2019-02-09T15:34:18.972Z,4.70
2019-02-09T15:36:25.321Z,4.83
2019-02-09T15:38:31.470Z,4.77
2019-02-09T15:40:37.709Z,4.79
2019-02-09T15:42:45.643Z,4.86
2019-02-09T15:44:51.938Z,4.86
2019-02-09T15:46:58.239Z,4.87
2019-02-09T15:49:06.333Z,4.81
2019-02-09T15:51:12.547Z,4.84
2019-02-09T15:53:18.887Z,4.92
2019-02-09T15:55:25.943Z,4.92
2019-02-09T15:57:32.232Z,4.89
2019-02-09T15:59:38.469Z,4.88
2019-02-09T16:01:45.626Z,4.88
2019-02-09T16:03:52.055Z,4.87
2019-02-09T16:05:59.021Z,4.95
2019-02-09T16:08:05.291Z,4.94
2019-02-09T16:10:18.136Z,4.98
2019-02-09T16:12:24.394Z,5.03
2019-02-09T16:14:32.357Z,4.94
2019-02-09T16:16:38.654Z,4.99
2019-02-09T16:18:45.040Z,4.98
2019-02-09T16:20:51.337Z,4.97
2019-02-09T16:22:57.707Z,4.98
2019-02-09T16:25:05.146Z,5.03
2019-02-09T16:27:11.434Z,5.03
2019-02-09T16:29:17.725Z,5.04
2019-02-09T16:31:24.496Z,5.06
2019-02-09T16:33:32.420Z,5.07
2019-02-09T16:35:38.667Z,5.12
2019-02-09T16:37:44.963Z,5.14
2019-02-09T16:39:52.903Z,5.17
2019-02-09T16:42:00.896Z,5.22
2019-02-09T16:44:07.279Z,5.19
2019-02-09T16:46:13.425Z,5.22
2019-02-09T16:48:21.289Z,5.20
2019-02-09T16:50:28.351Z,5.26
2019-02-09T16:52:34.514Z,5.27
2019-02-09T16:54:40.879Z,5.27
2019-02-09T16:56:47.303Z,5.24
2019-02-09T16:58:55.223Z,5.25
2019-02-09T17:01:01.613Z,5.22
2019-02-09T17:03:09.986Z,5.30
2019-02-09T17:05:17.332Z,5.34
2019-02-09T17:07:24.804Z,5.21
2019-02-09T17:09:31.202Z,5.13
2019-02-09T17:11:37.511Z,5.08
2019-02-09T17:13:43.820Z,5.03
2019-02-09T17:15:50.154Z,5.00
2019-02-09T17:17:56.373Z,4.97
2019-02-09T17:20:02.593Z,4.95
2019-02-09T17:22:08.990Z,4.88
2019-02-09T17:24:15.431Z,4.81
2019-02-09T17:26:21.807Z,4.81
2019-02-09T17:28:28.099Z,4.73
2019-02-09T17:30:37.446Z,4.69
2019-02-09T17:32:43.738Z,4.65
2019-02-09T17:34:50.062Z,4.65
2019-02-09T17:36:56.291Z,4.57
2019-02-09T17:39:02.809Z,4.58
2019-02-09T17:41:10.632Z,4.58
2019-02-09T17:43:17.002Z,4.60
2019-02-09T17:45:47.048Z,4.64
2019-02-09T17:47:53.260Z,4.64
2019-02-09T17:49:59.580Z,4.72
2019-02-09T17:52:07.560Z,4.79
2019-02-09T17:54:13.878Z,4.85
2019-02-09T17:56:20.103Z,4.87
2019-02-09T17:58:26.453Z,4.93
2019-02-09T18:00:34.365Z,4.94
2019-02-09T18:02:40.673Z,4.95
2019-02-09T18:04:48.634Z,4.96
2019-02-09T18:06:56.674Z,5.00
2019-02-09T18:09:03.033Z,4.95
2019-02-09T18:11:10.783Z,4.94
2019-02-09T18:13:17.062Z,4.97
2019-02-09T18:15:23.467Z,4.98
2019-02-09T18:17:29.689Z,4.93
2019-02-09T18:19:35.985Z,4.99
2019-02-09T18:21:42.705Z,4.98
2019-02-09T18:23:49.516Z,4.95
2019-02-09T18:25:57.430Z,4.91
2019-02-09T18:28:03.663Z,4.93
2019-02-09T18:30:22.855Z,4.89
2019-02-09T18:32:29.248Z,4.88
2019-02-09T18:34:35.614Z,4.91
2019-02-09T18:36:41.909Z,4.95
2019-02-09T18:38:48.338Z,4.88
2019-02-09T18:40:55.539Z,4.90
2019-02-09T18:43:01.765Z,5.05
2019-02-09T18:45:18.856Z,4.95
2019-02-09T18:47:25.093Z,5.10
2019-02-09T18:49:31.393Z,5.01
2019-02-09T18:51:39.479Z,4.89
2019-02-09T18:53:45.768Z,4.85
2019-02-09T18:55:52.823Z,4.79
2019-02-09T18:58:00.207Z,4.85
2019-02-09T19:00:11.270Z,4.87
2019-02-09T19:02:17.687Z,4.82
2019-02-09T19:04:25.529Z,4.82
2019-02-09T19:06:32.972Z,4.90
2019-02-09T19:08:39.264Z,4.88
2019-02-09T19:10:46.143Z,4.89
2019-02-09T19:12:52.714Z,4.93
2019-02-09T19:14:59.000Z,4.98
2019-02-09T19:17:05.293Z,5.02
2019-02-09T19:19:11.665Z,5.10
2019-02-09T19:21:19.524Z,5.09
2019-02-09T19:23:27.399Z,5.04
2019-02-09T19:25:34.012Z,4.94
2019-02-09T19:27:40.380Z,4.89
2019-02-09T19:29:46.709Z,4.78
2019-02-09T19:31:53.008Z,4.76
2019-02-09T19:34:00.274Z,4.73
2019-02-09T19:36:08.155Z,4.70
2019-02-09T19:38:15.937Z,4.60
2019-02-09T19:40:25.298Z,4.56
2019-02-09T19:42:31.888Z,4.50
2019-02-09T19:44:40.934Z,4.50
2019-02-09T19:46:47.185Z,4.38
2019-02-09T19:48:53.573Z,4.37
2019-02-09T19:51:01.492Z,4.32
2019-02-09T19:53:07.884Z,4.28
2019-02-09T19:55:24.493Z,4.21
2019-02-09T19:57:30.749Z,4.12
2019-02-09T19:59:37.020Z,4.22
2019-02-09T20:01:43.339Z,4.22
2019-02-09T20:03:49.637Z,4.05
2019-02-09T20:05:55.920Z,4.20
2019-02-09T20:08:02.183Z,4.23
2019-02-09T20:10:13.289Z,4.13
2019-02-09T20:12:20.284Z,4.06
2019-02-09T20:14:27.434Z,4.09
2019-02-09T20:16:33.673Z,4.09
2019-02-09T20:18:39.966Z,4.04
2019-02-09T20:20:47.511Z,4.03
2019-02-09T20:22:54.121Z,4.05
2019-02-09T20:25:00.476Z,4.03
2019-02-09T20:27:07.572Z,3.91
2019-02-09T20:29:15.711Z,3.88
2019-02-09T20:31:23.882Z,3.82
2019-02-09T20:33:31.695Z,3.87
2019-02-09T20:35:38.000Z,4.02
2019-02-09T20:37:44.376Z,4.08
2019-02-09T20:39:50.637Z,4.16
2019-02-09T20:41:59.782Z,4.22
2019-02-09T20:44:07.659Z,4.26
2019-02-09T20:46:16.869Z,4.29
2019-02-09T20:48:27.723Z,4.30
2019-02-09T20:50:35.622Z,4.31
2019-02-09T20:52:41.852Z,4.36
2019-02-09T20:54:48.314Z,4.28
2019-02-09T20:56:56.158Z,4.24
2019-02-09T20:59:04.037Z,4.17
2019-02-09T21:01:11.767Z,4.15
2019-02-09T21:03:19.625Z,4.09
2019-02-09T21:05:26.216Z,4.03
2019-02-09T21:07:32.585Z,4.05
2019-02-09T21:09:40.264Z,3.98
2019-02-09T21:11:48.182Z,4.06
2019-02-09T21:13:57.372Z,4.01
2019-02-09T21:16:03.113Z,4.03
2019-02-09T21:18:10.661Z,4.05
2019-02-09T21:20:18.228Z,4.12
2019-02-09T21:22:24.593Z,4.07
2019-02-09T21:24:30.994Z,4.01
2019-02-09T21:26:37.429Z,4.03
2019-02-09T21:28:43.763Z,4.06
2019-02-09T21:30:50.030Z,4.08
2019-02-09T21:32:56.318Z,3.94
2019-02-09T21:35:02.671Z,3.89
2019-02-09T21:37:08.928Z,3.85
2019-02-09T21:39:15.219Z,3.86
2019-02-09T21:41:23.110Z,3.86
2019-02-09T21:43:29.379Z,3.81
2019-02-09T21:45:35.728Z,3.77
2019-02-09T21:47:41.932Z,3.88
2019-02-09T21:49:49.742Z,3.83
2019-02-09T21:51:56.037Z,3.74
2019-02-09T21:54:02.271Z,3.74
2019-02-09T21:56:08.580Z,3.79
2019-02-09T21:58:15.006Z,3.80
2019-02-09T22:00:33.822Z,3.77
2019-02-09T22:02:42.442Z,3.78
2019-02-09T22:04:49.165Z,3.79
2019-02-09T22:06:55.536Z,3.79
2019-02-09T22:09:01.903Z,3.82
2019-02-09T22:11:09.801Z,3.74
2019-02-09T22:13:16.034Z,3.77
2019-02-09T22:15:25.055Z,3.70
2019-02-09T22:17:31.352Z,3.70
2019-02-09T22:19:37.676Z,3.53
2019-02-09T22:21:44.105Z,3.50
2019-02-09T22:23:50.480Z,3.46
2019-02-09T22:25:56.706Z,3.54
2019-02-09T22:28:02.893Z,3.47
2019-02-09T22:30:33.506Z,3.38
2019-02-09T22:32:39.892Z,3.46
2019-02-09T22:34:46.191Z,3.36
2019-02-09T22:36:52.606Z,3.31
2019-02-09T22:39:00.063Z,3.37
2019-02-09T22:41:06.429Z,3.26
2019-02-09T22:43:12.983Z,3.17
2019-02-09T22:45:23.678Z,3.22
2019-02-09T22:47:30.036Z,3.21
2019-02-09T22:49:36.314Z,3.16
2019-02-09T22:51:42.473Z,3.15
2019-02-09T22:53:48.716Z,3.15
2019-02-09T22:55:56.032Z,3.06
2019-02-09T22:58:03.422Z,3.00
2019-02-09T23:00:17.439Z,2.96
2019-02-09T23:02:25.189Z,2.88
2019-02-09T23:04:39.336Z,3.02
2019-02-09T23:06:57.088Z,3.00
2019-02-09T23:09:06.215Z,2.96
2019-02-09T23:11:13.918Z,2.89
2019-02-09T23:13:20.178Z,2.82
2019-02-09T23:15:26.467Z,2.82
2019-02-09T23:17:32.697Z,2.82
2019-02-09T23:19:39.021Z,2.67
2019-02-09T23:21:45.249Z,2.75
2019-02-09T23:23:51.467Z,2.76
2019-02-09T23:25:57.732Z,2.67
2019-02-09T23:28:03.957Z,2.65
2019-02-09T23:30:12.542Z,2.61
2019-02-09T23:32:18.989Z,2.62
2019-02-09T23:34:25.252Z,2.56
2019-02-09T23:36:31.405Z,2.59
2019-02-09T23:38:39.279Z,2.52
2019-02-09T23:40:45.437Z,2.60
2019-02-09T23:42:51.728Z,2.52
2019-02-09T23:44:57.917Z,2.43
2019-02-09T23:47:13.007Z,2.55
2019-02-09T23:49:19.236Z,2.48
2019-02-09T23:51:25.405Z,2.49
2019-02-09T23:53:31.729Z,2.63
2019-02-09T23:55:37.941Z,2.45
2019-02-09T23:57:45.872Z,2.53
2019-02-09T23:59:52.319Z,2.52
